createdAt,value
2017-05-30T00:00:24.399Z,80.70
2017-05-30T00:03:08.179Z,80.60
2017-05-30T00:05:37.980Z,80.60
2017-05-30T00:08:07.408Z,80.70
2017-05-30T00:10:37.491Z,80.60
2017-05-30T00:13:06.354Z,80.80
2017-05-30T00:15:35.232Z,80.80
2017-05-30T00:18:07.337Z,80.70
2017-05-30T00:20:36.220Z,80.80
2017-05-30T00:23:05.088Z,80.80
2017-05-30T00:25:39.882Z,80.90
2017-05-30T00:28:07.967Z,80.80
2017-05-30T00:30:37.181Z,81.00
2017-05-30T00:33:06.838Z,81.30
2017-05-30T00:35:35.710Z,81.20
2017-05-30T00:38:04.574Z,81.10
2017-05-30T00:40:34.664Z,81.00
2017-05-30T00:43:03.530Z,81.10
2017-05-30T00:45:34.802Z,81.20
2017-05-30T00:48:04.367Z,81.20
2017-05-30T00:50:33.229Z,81.40
2017-05-30T00:53:09.570Z,81.40
2017-05-30T00:55:38.420Z,82.10
2017-05-30T00:58:08.213Z,81.70
2017-05-30T01:00:36.305Z,81.70
2017-05-30T01:03:05.160Z,82.30
2017-05-30T01:05:38.416Z,82.40
2017-05-30T01:08:10.618Z,82.50
2017-05-30T01:10:39.472Z,82.70
2017-05-30T01:13:09.270Z,83.10
2017-05-30T01:15:39.046Z,83.00
2017-05-30T01:18:09.115Z,82.90
2017-05-30T01:20:37.954Z,83.40
2017-05-30T01:23:06.881Z,83.20
2017-05-30T01:25:35.734Z,83.20
2017-05-30T01:28:04.659Z,83.50
2017-05-30T01:30:33.528Z,83.20
2017-05-30T01:33:02.413Z,83.50
2017-05-30T01:35:43.714Z,83.60
2017-05-30T01:38:12.894Z,83.60
2017-05-30T01:40:42.991Z,83.60
2017-05-30T01:43:11.835Z,83.80
2017-05-30T01:48:35.642Z,83.70
2017-05-30T01:51:06.294Z,84.50
2017-05-30T01:53:44.934Z,84.00
2017-05-30T01:56:21.145Z,84.10
2017-05-30T01:58:52.355Z,83.90
2017-05-30T02:01:21.652Z,84.30
2017-05-30T02:03:50.895Z,84.70
2017-05-30T02:06:22.669Z,84.00
2017-05-30T02:08:51.526Z,83.80
2017-05-30T02:11:20.375Z,83.60
2017-05-30T02:13:49.265Z,83.50
2017-05-30T02:16:21.713Z,83.20
2017-05-30T02:18:51.727Z,83.20
2017-05-30T02:21:21.374Z,83.30
2017-05-30T02:23:51.108Z,83.20
2017-05-30T02:26:21.074Z,83.20
2017-05-30T02:28:50.270Z,83.20
2017-05-30T02:31:19.109Z,83.70
2017-05-30T02:33:49.658Z,83.80
2017-05-30T02:36:18.585Z,84.00
2017-05-30T02:38:47.937Z,84.20
2017-05-30T02:41:17.723Z,84.30
2017-05-30T02:43:48.038Z,84.30
2017-05-30T02:46:18.704Z,84.60
2017-05-30T02:48:49.370Z,84.80
2017-05-30T02:51:19.042Z,84.90
2017-05-30T02:53:47.926Z,84.80
2017-05-30T02:56:16.786Z,84.80
2017-05-30T02:58:45.643Z,84.70
2017-05-30T03:01:13.738Z,84.60
2017-05-30T03:03:41.848Z,85.00
2017-05-30T03:06:10.701Z,84.90
2017-05-30T03:08:39.374Z,84.80
2017-05-30T03:11:08.234Z,85.10
2017-05-30T03:13:37.102Z,85.10
2017-05-30T03:16:05.990Z,84.90
2017-05-30T03:18:34.857Z,84.90
2017-05-30T03:21:03.726Z,84.80
2017-05-30T03:23:31.805Z,84.80
2017-05-30T03:26:00.696Z,84.60
2017-05-30T03:28:28.782Z,84.60
2017-05-30T03:31:10.199Z,84.20
2017-05-30T03:33:39.050Z,83.80
2017-05-30T03:36:07.907Z,83.20
2017-05-30T03:38:36.783Z,82.40
2017-05-30T03:41:04.879Z,82.40
2017-05-30T03:43:36.803Z,81.80
2017-05-30T03:46:05.716Z,81.50
2017-05-30T03:48:39.449Z,81.20
2017-05-30T03:51:16.630Z,80.20
2017-05-30T03:53:45.502Z,83.30
2017-05-30T03:56:14.356Z,88.60
2017-05-30T03:58:42.457Z,88.50
2017-05-30T04:01:14.809Z,92.40
2017-05-30T04:03:42.890Z,92.40
2017-05-30T04:06:18.782Z,93.80
2017-05-30T04:08:48.593Z,94.20
2017-05-30T04:11:17.460Z,94.40
2017-05-30T04:13:46.321Z,95.00
2017-05-30T04:16:17.090Z,95.20
2017-05-30T04:18:45.951Z,95.30
2017-05-30T04:21:14.806Z,95.60
2017-05-30T04:23:43.680Z,95.90
2017-05-30T04:26:16.696Z,95.90
2017-05-30T04:28:45.562Z,96.00
2017-05-30T04:31:14.508Z,96.10
2017-05-30T04:33:43.367Z,96.20
2017-05-30T04:36:12.239Z,96.20
2017-05-30T04:38:40.333Z,96.20
2017-05-30T04:41:09.219Z,96.40
2017-05-30T04:43:38.083Z,96.40
2017-05-30T04:46:06.979Z,96.50
2017-05-30T04:48:35.087Z,96.50
2017-05-30T04:51:03.945Z,96.70
2017-05-30T04:53:32.832Z,96.80
2017-05-30T04:56:01.706Z,96.90
2017-05-30T04:58:37.283Z,96.80
2017-05-30T05:01:16.721Z,96.80
2017-05-30T05:03:45.606Z,96.80
2017-05-30T05:06:14.558Z,96.70
2017-05-30T05:08:43.382Z,96.70
2017-05-30T05:11:12.254Z,96.70
2017-05-30T05:13:41.615Z,96.70
2017-05-30T05:16:10.509Z,96.60
2017-05-30T05:18:39.354Z,96.70
2017-05-30T05:21:08.202Z,96.60
2017-05-30T05:23:36.279Z,96.60
2017-05-30T05:26:06.115Z,96.60
2017-05-30T05:28:34.991Z,96.60
2017-05-30T05:31:03.066Z,96.50
2017-05-30T05:33:31.921Z,96.60
2017-05-30T05:36:00.793Z,96.70
2017-05-30T05:38:29.630Z,96.70
2017-05-30T05:40:58.486Z,96.70
2017-05-30T05:43:27.356Z,96.70
2017-05-30T05:45:56.279Z,96.70
2017-05-30T05:48:25.284Z,96.60
2017-05-30T05:50:54.152Z,96.60
2017-05-30T05:53:23.255Z,96.60
2017-05-30T05:55:52.136Z,96.60
2017-05-30T05:58:20.271Z,96.60
2017-05-30T06:00:49.204Z,96.30
2017-05-30T06:03:18.077Z,96.30
2017-05-30T06:05:46.941Z,96.50
2017-05-30T06:08:15.796Z,96.70
2017-05-30T06:10:49.531Z,96.60
2017-05-30T06:13:18.428Z,96.50
2017-05-30T06:15:47.311Z,96.50
2017-05-30T06:18:16.211Z,96.40
2017-05-30T06:20:45.150Z,96.40
2017-05-30T06:23:13.234Z,96.40
2017-05-30T06:25:42.089Z,96.60
2017-05-30T06:28:11.915Z,96.60
2017-05-30T06:30:40.796Z,96.90
2017-05-30T06:33:09.712Z,96.70
2017-05-30T06:35:38.570Z,96.70
2017-05-30T06:38:07.447Z,96.80
2017-05-30T06:40:36.299Z,96.90
2017-05-30T06:43:05.192Z,96.80
2017-05-30T06:45:34.062Z,96.80
2017-05-30T06:48:02.934Z,96.80
2017-05-30T06:50:31.812Z,96.80
2017-05-30T06:53:00.756Z,96.90
2017-05-30T06:55:29.608Z,96.80
2017-05-30T06:57:58.692Z,96.70
2017-05-30T07:00:27.611Z,96.60
2017-05-30T07:02:56.646Z,96.60
2017-05-30T07:05:26.454Z,96.50
2017-05-30T07:07:55.323Z,96.30
2017-05-30T07:10:23.444Z,96.40
2017-05-30T07:12:51.556Z,96.20
2017-05-30T07:15:20.520Z,95.90
2017-05-30T07:17:48.637Z,95.90
2017-05-30T07:20:17.511Z,95.40
2017-05-30T07:22:45.629Z,95.40
2017-05-30T07:25:14.548Z,95.60
2017-05-30T07:27:44.416Z,95.60
2017-05-30T07:30:12.682Z,95.60
2017-05-30T07:32:41.567Z,95.80
2017-05-30T07:35:10.440Z,95.80
2017-05-30T07:37:39.326Z,95.80
2017-05-30T07:40:08.263Z,95.80
2017-05-30T07:42:36.431Z,95.80
2017-05-30T07:45:08.977Z,95.60
2017-05-30T07:47:37.871Z,95.20
2017-05-30T07:50:06.729Z,94.60
2017-05-30T07:52:35.615Z,94.30
2017-05-30T07:55:04.899Z,94.10
2017-05-30T07:57:33.779Z,94.20
2017-05-30T08:00:02.662Z,93.90
2017-05-30T08:02:30.846Z,93.90
2017-05-30T08:04:59.739Z,92.90
2017-05-30T08:07:28.618Z,93.30
2017-05-30T08:09:57.514Z,93.40
2017-05-30T08:12:25.647Z,93.40
2017-05-30T08:14:54.555Z,93.30
2017-05-30T08:17:23.419Z,92.60
2017-05-30T08:19:53.595Z,92.50
2017-05-30T08:22:22.458Z,92.60
2017-05-30T08:24:51.363Z,92.00
2017-05-30T08:27:20.291Z,91.90
2017-05-30T08:29:49.152Z,91.30
2017-05-30T08:32:18.003Z,91.90
2017-05-30T08:34:46.983Z,91.50
2017-05-30T08:37:15.848Z,91.60
2017-05-30T08:39:45.295Z,91.80
2017-05-30T08:42:14.155Z,91.00
2017-05-30T08:44:42.271Z,91.00
2017-05-30T08:47:11.136Z,91.10
2017-05-30T08:49:40.010Z,90.20
2017-05-30T08:52:08.904Z,90.80
2017-05-30T08:54:37.753Z,89.10
2017-05-30T08:57:08.784Z,85.70
2017-05-30T08:59:37.634Z,86.30
2017-05-30T09:02:06.513Z,86.30
2017-05-30T09:04:35.384Z,88.20
2017-05-30T09:07:05.251Z,89.20
2017-05-30T09:09:34.134Z,88.00
2017-05-30T09:12:02.999Z,88.50
2017-05-30T09:14:31.897Z,85.80
2017-05-30T09:17:00.782Z,87.20
2017-05-30T09:19:29.684Z,86.10
2017-05-30T09:21:57.842Z,86.20
2017-05-30T09:24:26.719Z,85.60
2017-05-30T09:26:55.604Z,83.30
2017-05-30T09:29:24.487Z,82.30
2017-05-30T09:31:53.409Z,77.50
2017-05-30T09:34:22.305Z,78.70
2017-05-30T09:36:51.163Z,77.00
2017-05-30T09:39:20.138Z,75.60
2017-05-30T09:41:49.030Z,76.30
2017-05-30T09:44:17.922Z,76.10
2017-05-30T09:46:46.828Z,74.90
2017-05-30T09:49:15.722Z,74.30
2017-05-30T09:51:44.624Z,73.20
2017-05-30T09:54:13.511Z,71.50
2017-05-30T09:56:42.396Z,70.30
2017-05-30T09:59:11.338Z,69.20
2017-05-30T10:01:40.208Z,67.80
2017-05-30T10:04:08.291Z,67.90
2017-05-30T10:06:37.170Z,70.30
2017-05-30T10:09:06.035Z,68.70
2017-05-30T10:11:34.908Z,65.70
2017-05-30T10:14:03.799Z,64.30
2017-05-30T10:16:32.864Z,64.30
2017-05-30T10:19:01.890Z,64.50
2017-05-30T10:21:30.739Z,66.00
2017-05-30T10:23:58.847Z,66.00
2017-05-30T10:26:28.014Z,64.70
2017-05-30T10:29:00.267Z,63.90
2017-05-30T10:31:28.961Z,63.90
2017-05-30T10:33:57.811Z,63.60
2017-05-30T10:36:26.704Z,62.90
2017-05-30T10:38:55.608Z,60.90
2017-05-30T10:41:24.563Z,60.80
2017-05-30T10:43:53.466Z,60.50
2017-05-30T10:46:22.345Z,61.50
2017-05-30T10:48:51.269Z,62.70
2017-05-30T10:51:20.387Z,62.60
2017-05-30T10:53:49.264Z,62.30
2017-05-30T10:56:18.216Z,62.50
2017-05-30T10:58:47.081Z,63.20
2017-05-30T11:01:15.180Z,63.20
2017-05-30T11:03:43.390Z,62.50
2017-05-30T11:06:12.320Z,62.20
2017-05-30T11:08:41.202Z,62.00
2017-05-30T11:11:10.081Z,62.40
2017-05-30T11:13:38.980Z,63.10
2017-05-30T11:16:07.868Z,63.80
2017-05-30T11:18:36.806Z,63.70
2017-05-30T11:21:05.682Z,63.10
2017-05-30T11:23:33.775Z,63.10
2017-05-30T11:26:02.707Z,61.40
2017-05-30T11:28:31.883Z,61.50
2017-05-30T11:31:00.024Z,61.40
2017-05-30T11:33:28.901Z,60.90
2017-05-30T11:35:57.758Z,60.20
2017-05-30T11:38:26.675Z,57.40
2017-05-30T11:40:56.408Z,57.30
2017-05-30T11:43:25.244Z,56.10
2017-05-30T11:45:54.121Z,56.20
2017-05-30T11:48:22.262Z,56.20
2017-05-30T11:50:51.119Z,56.90
2017-05-30T11:53:19.218Z,56.80
2017-05-30T11:55:48.146Z,56.90
2017-05-30T11:58:17.002Z,57.30
2017-05-30T12:00:45.163Z,57.30
2017-05-30T12:03:14.027Z,56.80
2017-05-30T12:05:43.749Z,56.10
2017-05-30T12:08:12.711Z,56.20
2017-05-30T12:10:41.611Z,56.50
2017-05-30T12:13:10.503Z,57.20
2017-05-30T12:15:39.385Z,57.30
2017-05-30T12:18:08.255Z,57.10
2017-05-30T12:20:36.347Z,57.10
2017-05-30T12:23:04.451Z,58.30
2017-05-30T12:25:33.411Z,61.10
2017-05-30T12:28:02.409Z,61.60
2017-05-30T12:30:31.320Z,61.20
2017-05-30T12:32:59.397Z,61.20
2017-05-30T12:35:28.286Z,61.60
2017-05-30T12:37:57.171Z,61.20
2017-05-30T12:40:25.270Z,61.20
2017-05-30T12:42:53.470Z,61.00
2017-05-30T12:45:22.403Z,59.60
2017-05-30T12:47:51.297Z,59.60
2017-05-30T12:50:19.462Z,58.90
2017-05-30T12:52:48.350Z,58.50
2017-05-30T12:55:17.276Z,58.90
2017-05-30T12:57:45.408Z,58.90
2017-05-30T13:00:14.428Z,59.40
2017-05-30T13:02:42.567Z,59.40
2017-05-30T13:05:11.497Z,58.40
2017-05-30T13:07:41.313Z,58.90
2017-05-30T13:10:14.683Z,59.40
2017-05-30T13:12:43.603Z,62.10
2017-05-30T13:15:12.514Z,63.90
2017-05-30T13:17:41.046Z,63.20
2017-05-30T13:20:09.234Z,64.00
2017-05-30T13:22:37.517Z,62.70
2017-05-30T13:25:06.488Z,62.50
2017-05-30T13:27:35.429Z,62.00
2017-05-30T13:30:04.310Z,60.10
2017-05-30T13:32:33.174Z,60.00
2017-05-30T13:35:01.361Z,59.90
2017-05-30T13:37:30.251Z,59.20
2017-05-30T13:39:59.224Z,58.40
2017-05-30T13:42:28.128Z,58.10
2017-05-30T13:44:57.093Z,57.40
2017-05-30T13:47:26.300Z,58.10
2017-05-30T13:49:55.366Z,57.80
2017-05-30T13:52:24.249Z,59.00
2017-05-30T13:54:53.183Z,58.30
2017-05-30T13:57:22.107Z,57.70
2017-05-30T13:59:51.001Z,57.20
2017-05-30T14:02:19.899Z,56.70
2017-05-30T14:04:50.874Z,57.20
2017-05-30T14:07:19.872Z,57.30
2017-05-30T14:09:48.767Z,56.40
2017-05-30T14:12:17.635Z,56.60
2017-05-30T14:14:45.735Z,56.60
2017-05-30T14:17:14.614Z,58.00
2017-05-30T14:19:43.516Z,59.00
2017-05-30T14:22:12.447Z,60.20
2017-05-30T14:24:42.089Z,61.70
2017-05-30T14:27:16.178Z,62.80
2017-05-30T14:29:44.325Z,62.80
2017-05-30T14:32:21.972Z,62.80
2017-05-30T14:34:51.679Z,64.40
2017-05-30T14:37:20.648Z,65.00
2017-05-30T14:39:50.267Z,64.40
2017-05-30T14:42:19.154Z,64.20
2017-05-30T14:44:48.077Z,65.00
2017-05-30T14:47:16.999Z,65.40
2017-05-30T14:49:45.129Z,65.30
2017-05-30T14:52:13.256Z,65.50
2017-05-30T14:54:47.539Z,66.70
2017-05-30T14:57:16.439Z,67.30
2017-05-30T14:59:45.373Z,68.60
2017-05-30T15:02:14.255Z,69.70
2017-05-30T15:04:42.463Z,69.60
2017-05-30T15:07:12.782Z,77.30
2017-05-30T15:09:42.045Z,90.80
2017-05-30T15:12:13.740Z,90.80
2017-05-30T15:14:42.646Z,91.50
2017-05-30T15:17:11.540Z,91.70
2017-05-30T15:19:40.429Z,92.30
2017-05-30T15:22:09.337Z,91.90
2017-05-30T15:24:38.240Z,91.90
2017-05-30T15:27:07.150Z,92.40
2017-05-30T15:29:36.808Z,92.50
2017-05-30T15:32:05.665Z,92.50
2017-05-30T15:34:34.550Z,91.50
2017-05-30T15:37:03.495Z,91.00
2017-05-30T15:39:31.719Z,90.90
2017-05-30T15:42:00.578Z,90.10
2017-05-30T15:44:28.720Z,90.10
2017-05-30T15:46:57.671Z,87.60
2017-05-30T15:49:32.998Z,87.10
2017-05-30T15:52:01.889Z,85.40
2017-05-30T15:54:31.924Z,86.00
2017-05-30T15:57:00.852Z,86.90
2017-05-30T15:59:36.556Z,86.90
2017-05-30T16:02:05.734Z,83.40
2017-05-30T16:04:34.806Z,82.80
2017-05-30T16:07:05.792Z,82.20
2017-05-30T16:09:34.715Z,78.00
2017-05-30T16:12:03.612Z,77.90
2017-05-30T16:14:31.745Z,77.80
2017-05-30T16:17:01.317Z,76.80
2017-05-30T16:19:29.466Z,76.80
2017-05-30T16:21:58.884Z,77.40
2017-05-30T16:24:27.809Z,75.90
2017-05-30T16:26:57.548Z,74.70
2017-05-30T16:29:26.512Z,74.40
2017-05-30T16:31:55.431Z,74.30
2017-05-30T16:34:24.286Z,74.10
2017-05-30T16:36:57.489Z,74.30
2017-05-30T16:39:26.351Z,72.80
2017-05-30T16:41:55.242Z,73.20
2017-05-30T16:44:24.133Z,72.80
2017-05-30T16:46:53.006Z,72.30
2017-05-30T16:49:21.899Z,72.40
2017-05-30T16:51:50.019Z,72.40
2017-05-30T16:54:18.893Z,71.30
2017-05-30T16:56:47.767Z,67.70
2017-05-30T16:59:15.890Z,67.70
2017-05-30T17:01:44.789Z,68.60
2017-05-30T17:04:13.732Z,67.40
2017-05-30T17:06:42.639Z,67.60
2017-05-30T17:09:11.507Z,67.50
2017-05-30T17:11:40.388Z,67.10
2017-05-30T17:14:08.521Z,67.10
2017-05-30T17:16:37.505Z,67.60
2017-05-30T17:19:05.638Z,67.60
2017-05-30T17:21:33.776Z,68.70
2017-05-30T17:24:02.775Z,70.00
2017-05-30T17:26:32.098Z,69.10
2017-05-30T17:29:00.966Z,70.00
2017-05-30T17:31:31.277Z,69.90
2017-05-30T17:34:00.133Z,68.60
2017-05-30T17:36:28.998Z,69.00
2017-05-30T17:38:57.875Z,68.40
2017-05-30T17:41:26.747Z,68.40
2017-05-30T17:43:54.849Z,68.40
2017-05-30T17:46:23.691Z,68.40
2017-05-30T17:48:52.767Z,68.60
2017-05-30T17:51:20.859Z,68.60
2017-05-30T17:53:49.769Z,68.90
2017-05-30T17:56:19.374Z,68.80
2017-05-30T17:58:48.239Z,68.30
2017-05-30T18:01:17.090Z,67.90
2017-05-30T18:03:45.975Z,67.80
2017-05-30T18:06:15.920Z,67.70
2017-05-30T18:08:44.810Z,68.20
2017-05-30T18:11:12.918Z,68.70
2017-05-30T18:13:41.802Z,68.30
2017-05-30T18:16:10.670Z,68.60
2017-05-30T18:18:41.506Z,69.40
2017-05-30T18:21:09.603Z,69.40
2017-05-30T18:23:38.495Z,70.50
2017-05-30T18:26:07.355Z,71.10
2017-05-30T18:28:36.223Z,70.90
2017-05-30T18:31:05.843Z,71.00
2017-05-30T18:33:36.794Z,71.40
2017-05-30T18:36:05.672Z,71.80
2017-05-30T18:38:34.530Z,71.50
2017-05-30T18:41:03.401Z,71.60
2017-05-30T18:43:33.014Z,71.40
2017-05-30T18:46:01.960Z,71.00
2017-05-30T18:48:30.802Z,71.20
2017-05-30T18:51:02.066Z,71.50
2017-05-30T18:53:30.967Z,72.10
2017-05-30T18:56:02.630Z,72.70
2017-05-30T18:58:32.635Z,72.90
2017-05-30T19:01:01.499Z,73.50
2017-05-30T19:03:30.395Z,73.40
2017-05-30T19:06:06.974Z,73.40
2017-05-30T19:08:36.367Z,73.80
2017-05-30T19:11:05.887Z,73.80
2017-05-30T19:13:34.812Z,73.80
2017-05-30T19:16:04.843Z,74.30
2017-05-30T19:18:34.859Z,74.20
2017-05-30T19:21:03.729Z,74.80
2017-05-30T19:23:36.072Z,75.20
2017-05-30T19:26:05.126Z,75.50
2017-05-30T19:28:37.963Z,76.00
2017-05-30T19:31:07.119Z,76.60
2017-05-30T19:33:35.992Z,76.90
2017-05-30T19:36:04.843Z,77.80
2017-05-30T19:38:33.731Z,77.60
2017-05-30T19:41:02.602Z,77.90
2017-05-30T19:43:32.202Z,78.30
2017-05-30T19:48:36.636Z,78.70
2017-05-30T19:51:05.921Z,79.00
2017-05-30T19:53:35.154Z,79.20
2017-05-30T19:56:04.057Z,79.20
2017-05-30T19:58:32.929Z,79.20
2017-05-30T20:01:01.841Z,80.10
2017-05-30T20:03:29.959Z,79.40
2017-05-30T20:06:00.407Z,79.70
2017-05-30T20:08:29.320Z,79.90
2017-05-30T20:10:58.144Z,80.20
2017-05-30T20:13:28.850Z,80.20
2017-05-30T20:15:57.952Z,80.40
2017-05-30T20:18:28.039Z,80.40
2017-05-30T20:20:56.918Z,80.40
2017-05-30T20:23:25.810Z,80.20
2017-05-30T20:25:54.688Z,80.30
2017-05-30T20:28:25.512Z,80.20
2017-05-30T20:30:53.642Z,80.20
2017-05-30T20:33:22.525Z,80.70
2017-05-30T20:35:51.421Z,81.00
2017-05-30T20:38:20.283Z,81.10
2017-05-30T20:40:52.376Z,80.80
2017-05-30T20:43:21.240Z,81.50
2017-05-30T20:45:50.138Z,80.70
2017-05-30T20:48:18.277Z,80.60
2017-05-30T20:50:47.128Z,80.80
2017-05-30T20:53:16.095Z,81.00
2017-05-30T20:55:45.411Z,81.00
2017-05-30T20:58:20.011Z,80.90
2017-05-30T21:00:48.852Z,81.50
2017-05-30T21:03:17.739Z,81.60
2017-05-30T21:05:46.630Z,81.90
2017-05-30T21:08:17.445Z,82.00
2017-05-30T21:10:47.523Z,82.10
2017-05-30T21:13:16.478Z,82.20
2017-05-30T21:15:45.393Z,82.20
2017-05-30T21:18:13.509Z,82.10
2017-05-30T21:20:43.418Z,82.20
2017-05-30T21:23:13.551Z,82.40
2017-05-30T21:25:42.431Z,82.50
2017-05-30T21:28:11.247Z,82.50
2017-05-30T21:30:40.114Z,82.20
2017-05-30T21:33:09.012Z,81.80
2017-05-30T21:35:46.812Z,80.80
2017-05-30T21:38:15.663Z,81.20
2017-05-30T21:40:44.990Z,81.20
2017-05-30T21:43:15.387Z,81.50
2017-05-30T21:45:45.817Z,81.10
2017-05-30T21:48:14.649Z,81.20
2017-05-30T21:50:43.923Z,81.10
2017-05-30T21:53:12.797Z,81.00
2017-05-30T21:55:41.681Z,80.90
2017-05-30T21:58:10.618Z,81.00
2017-05-30T22:00:39.514Z,81.40
2017-05-30T22:03:11.382Z,81.50
2017-05-30T22:05:40.412Z,81.30
2017-05-30T22:08:10.071Z,81.10
2017-05-30T22:10:38.963Z,82.20
2017-05-30T22:13:08.901Z,82.00
2017-05-30T22:15:37.827Z,81.90
2017-05-30T22:18:07.107Z,81.80
2017-05-30T22:20:36.446Z,82.00
2017-05-30T22:23:07.136Z,81.20
2017-05-30T22:25:39.228Z,80.50
2017-05-30T22:28:08.087Z,79.70
2017-05-30T22:30:41.406Z,78.70
2017-05-30T22:33:10.238Z,78.90
2017-05-30T22:35:39.915Z,78.90
2017-05-30T22:38:09.128Z,79.00
2017-05-30T22:40:38.015Z,79.10
2017-05-30T22:43:06.890Z,79.00
2017-05-30T22:45:35.795Z,79.10
2017-05-30T22:48:05.850Z,78.90
2017-05-30T22:50:34.717Z,79.80
2017-05-30T22:53:04.735Z,79.00
2017-05-30T22:55:33.633Z,79.00
2017-05-30T22:58:02.499Z,78.00
2017-05-30T23:00:30.664Z,78.00
2017-05-30T23:02:59.562Z,77.60
2017-05-30T23:05:28.426Z,77.50
2017-05-30T23:07:57.303Z,77.10
2017-05-30T23:10:27.323Z,77.00
2017-05-30T23:12:56.184Z,76.60
2017-05-30T23:15:25.066Z,76.90
2017-05-30T23:17:53.972Z,77.70
2017-05-30T23:20:22.831Z,76.00
2017-05-30T23:22:51.715Z,75.80
2017-05-30T23:25:22.979Z,76.00
2017-05-30T23:27:52.278Z,76.10
2017-05-30T23:30:21.171Z,76.30
2017-05-30T23:32:50.050Z,77.10
2017-05-30T23:35:18.934Z,76.80
2017-05-30T23:37:47.823Z,76.80
2017-05-30T23:40:16.696Z,76.60
2017-05-30T23:42:46.802Z,77.30
2017-05-30T23:45:15.671Z,77.70
2017-05-30T23:47:44.952Z,77.60
2017-05-30T23:50:13.832Z,77.60
2017-05-30T23:52:43.359Z,77.40
2017-05-30T23:55:12.272Z,77.60
2017-05-30T23:57:41.161Z,78.00
